PAMRPATK

Guest
Details From PAMR - Merrill Fld
To PATK - TALKEETNA
Flight Number -
Tags generated
Created
Modified
Stats Distance 67 nm / 124 km
Max Altitude 3,200 ft / 975 m
Waypoints 4
Social Downloads 3
Likes 0
Share

Download

Looking for another format? Having issues loading an existing format? Contact us
Advertisement - Login to hide

Notes

Basic altitude profile: - Ascent Rate: 2500ft/min - Ascent Speed: 250kts - Cruise Altitude: 35000ft - Cruise Speed: 420kts - Descent Rate: 1500ft/min - Descent Speed: 250kts Options: - Use NATs: yes - Use PACOTS: yes - Use low airways: yes - Use high airways: yes

Route

PAMR URTOW V491 TKA PATK

ID Type Via Altitude (ft/m) Position (lat/lon) Dist (leg/tot) Name
O PAMR APT - 0 / 0 61.21292 / -149.84481 - / 0 nm Merrill Fld
URTOW FIX - 3,200 / 975 62.06695 / -150.06091 51 / 51 nm
TKA VOR V491 (AWY-LO) 3,000 / 914 62.29867 / -150.10558 13 / 65 nm TALKEETNA VOR-DME
O PATK APT - 0 / 0 62.32051 / -150.09369 1 / 66 nm TALKEETNA

Altitude Profile

Advertisement - Login to hide

PAMR

Details ICAO PAMR (MRI)
Name Merrill Fld
Region USA (Alaska)
Timezone America/Anchorage (UTC-9.0)
Stats Elevation 137 ft / 42 m (AMSL)
Location 61.212900° -149.845000°
Runways 3
Magnetic Variation 15.262° E

METAR

PAMR 021153Z 21012G15KT 10SM FEW065 SCT095 BKN170 05/00 A2896 RMK AO2 SLP808 4/008 T00500000 10089 20011 53021 $

Decode

TAF

Not found

Departure Runways

ID Width Length Bearing (true/mag) Surface Threshold Overrun Markings Lighting
05 60 ft / 18 m 1,994 ft / 608 m 66.03° / 50.77° GRAVEL 0 ft / 0 m 0 ft / 0 m NONE
07 100 ft / 30 m 3,986 ft / 1,215 m 90.02° / 74.76° ASPHALT 0 ft / 0 m 75 ft / 23 m PREC-APP EDGE THRESHOLD REIL-OMNI
16 75 ft / 23 m 2,635 ft / 803 m 180.06° / 164.79° ASPHALT 0 ft / 0 m 0 ft / 0 m VISUAL EDGE THRESHOLD REIL-OMNI
23 60 ft / 18 m 1,994 ft / 608 m 246.04° / 230.78° GRAVEL 0 ft / 0 m 0 ft / 0 m NONE
25 100 ft / 30 m 3,986 ft / 1,215 m 270.04° / 254.78° ASPHALT 0 ft / 0 m 75 ft / 23 m PREC-APP EDGE THRESHOLD REIL-OMNI
34 75 ft / 23 m 2,635 ft / 803 m 0.06° / 344.79° ASPHALT 0 ft / 0 m 49 ft / 15 m VISUAL EDGE THRESHOLD REIL-OMNI

PATK

Details ICAO PATK (TKA)
Name TALKEETNA
Region USA (Alaska)
Timezone America/Anchorage (UTC-9.0)
Stats Elevation 358 ft / 109 m (AMSL)
Location 62.320500° -150.094000°
Runways 1
Magnetic Variation 15.281° E

METAR

PATK 021237Z AUTO 00000KT 10SM -RA SCT021 OVC028 02/00 A2899

Decode

TAF

PATK 021154Z 0212/0312 VRB03KT P6SM -RA OVC030 FM022300 VRB03KT 3SM -RASN BR OVC020 FM030100 VRB03KT 1/2SM -SN FZFG OVC010

Decode

Destination Runways

ID Width Length Bearing (true/mag) Surface Threshold Overrun Markings Lighting
18 75 ft / 23 m 3,503 ft / 1,068 m 207.01° / 191.73° ASPHALT 0 ft / 0 m 0 ft / 0 m APP EDGE THRESHOLD
36 75 ft / 23 m 3,503 ft / 1,068 m 27.01° / 11.72° ASPHALT 0 ft / 0 m 0 ft / 0 m APP EDGE THRESHOLD

Popular Alternatives